Time;durP1;ratioP1;P1;durP2;ratioP2;P2;SDS_P1;SDS_P2;PMS_P1;PMS_P2;Temp;Humidity;BMP_temperature;BMP_pressure;BME280_temperature;BME280_humidity;BME280_pressure;Samples;Min_cycle;Max_cycle;Signal;HPM_P1;HPM_P2
2021/12/23 00:00:57;;;;;;;8.15;4.38;;;-1.20;99.90;;;;;;5029479;28;20233;-77
2021/12/23 00:03:23;;;;;;;9.45;4.82;;;-1.30;99.90;;;;;;5029707;28;20192;-76
2021/12/23 00:05:49;;;;;;;7.72;4.35;;;-1.40;99.90;;;;;;5029641;28;20624;-76
2021/12/23 00:08:15;;;;;;;8.77;4.47;;;-1.60;99.90;;;;;;5029759;28;20158;-75
2021/12/23 00:10:41;;;;;;;8.65;3.70;;;-1.60;99.90;;;;;;5029267;28;20194;-76
2021/12/23 00:13:08;;;;;;;10.05;4.05;;;-1.70;99.90;;;;;;5029596;28;20154;-75
2021/12/23 00:16:01;;;;;;;8.23;4.28;;;-1.80;99.90;;;;;;5029561;28;20666;-77
2021/12/23 00:23:43;;;;;;;7.65;4.32;;;-2.20;99.90;;;;;;5029517;28;20165;-77
2021/12/23 00:26:09;;;;;;;9.05;4.40;;;-2.40;99.90;;;;;;5029384;28;20165;-76
2021/12/23 00:28:35;;;;;;;7.15;4.05;;;-2.50;99.90;;;;;;5029376;28;20249;-75
2021/12/23 00:31:02;;;;;;;6.18;4.43;;;-2.60;99.90;;;;;;5011580;28;20229;-76
2021/12/23 00:33:29;;;;;;;15.52;4.32;;;-2.80;99.90;;;;;;5028775;28;20219;-77
2021/12/23 00:35:56;;;;;;;9.00;4.50;;;-2.80;99.90;;;;;;5029305;28;20150;-77
2021/12/23 00:38:34;;;;;;;7.88;4.80;;;-2.80;99.90;;;;;;5029388;28;20615;-77
2021/12/23 00:41:03;;;;;;;9.57;4.95;;;-2.90;99.90;;;;;;5029229;28;20247;-75
2021/12/23 00:43:30;;;;;;;11.43;5.30;;;-3.00;99.90;;;;;;5029300;28;20233;-76
2021/12/23 00:45:56;;;;;;;9.18;4.38;;;-3.00;99.90;;;;;;5028065;28;20171;-76
2021/12/23 00:48:22;;;;;;;9.45;4.22;;;-3.00;99.90;;;;;;5011579;28;20216;-76
2021/12/23 00:50:49;;;;;;;7.13;3.60;;;-3.00;99.90;;;;;;5029085;28;20597;-76
2021/12/23 00:53:20;;;;;;;8.50;4.22;;;-3.00;99.90;;;;;;5029107;28;20154;-76
2021/12/23 00:55:51;;;;;;;10.27;4.55;;;-3.00;99.90;;;;;;5029231;28;20174;-76
2021/12/23 00:58:17;;;;;;;8.85;4.68;;;-3.00;99.90;;;;;;5029102;28;20174;-76
2021/12/23 01:00:44;;;;;;;7.95;4.65;;;-3.10;99.90;;;;;;5042124;28;20297;-77
2021/12/23 01:03:11;;;;;;;7.07;3.85;;;-3.20;99.90;;;;;;5049018;28;20189;-77
2021/12/23 01:05:38;;;;;;;9.93;4.05;;;-3.40;99.90;;;;;;5048832;28;20171;-77
2021/12/23 01:08:05;;;;;;;8.50;4.45;;;-3.50;99.90;;;;;;5048781;28;20161;-77
2021/12/23 01:10:31;;;;;;;13.05;5.10;;;-3.50;99.90;;;;;;5047294;28;20193;-77
2021/12/23 01:13:03;;;;;;;14.95;7.10;;;-3.50;99.90;;;;;;5048821;28;20173;-77
2021/12/23 01:18:07;;;;;;;12.75;6.68;;;-3.70;99.90;;;;;;5066401;28;20176;-76
2021/12/23 01:20:36;;;;;;;10.95;5.65;;;-3.60;99.90;;;;;;5049187;28;20200;-77
2021/12/23 01:23:07;;;;;;;9.57;5.40;;;-3.60;99.90;;;;;;5047537;28;20183;-76
2021/12/23 01:25:35;;;;;;;10.82;5.90;;;-3.70;99.90;;;;;;5048637;28;20153;-77
2021/12/23 01:28:01;;;;;;;13.82;6.22;;;-3.70;99.90;;;;;;5048840;28;20158;-76
2021/12/23 01:30:27;;;;;;;6.45;3.95;;;-3.80;99.90;;;;;;5047118;28;20292;-77
2021/12/23 01:32:56;;;;;;;14.07;6.97;;;-3.80;99.90;;;;;;5048638;28;20189;-76
2021/12/23 01:35:23;;;;;;;11.98;6.00;;;-3.70;99.90;;;;;;5047308;28;20165;-76
2021/12/23 01:37:49;;;;;;;8.20;4.55;;;-3.70;99.90;;;;;;5048670;28;20161;-75
2021/12/23 01:40:17;;;;;;;9.40;4.70;;;-3.70;99.90;;;;;;5048484;28;20253;-76
2021/12/23 01:42:43;;;;;;;14.98;4.75;;;-3.80;99.90;;;;;;5048561;28;20189;-76
2021/12/23 01:45:16;;;;;;;11.63;5.72;;;-3.80;99.90;;;;;;5051862;28;20165;-76
2021/12/23 01:47:43;;;;;;;7.03;3.92;;;-3.90;99.90;;;;;;5052128;28;20158;-76
2021/12/23 01:50:13;;;;;;;8.05;4.25;;;-3.90;99.90;;;;;;5050635;28;20197;-76
2021/12/23 01:52:40;;;;;;;13.73;6.40;;;-4.00;99.90;;;;;;5051896;28;20189;-76
2021/12/23 01:55:07;;;;;;;15.23;7.60;;;-4.00;99.90;;;;;;5051974;28;20173;-76
2021/12/23 01:57:34;;;;;;;16.33;8.45;;;-4.00;99.90;;;;;;5050522;28;20177;-76
2021/12/23 02:00:05;;;;;;;10.07;5.38;;;-4.10;99.90;;;;;;5040158;28;20253;-76
2021/12/23 02:02:32;;;;;;;11.68;6.35;;;-4.10;99.90;;;;;;5031945;28;20162;-77
2021/12/23 02:04:58;;;;;;;13.68;6.78;;;-4.10;99.90;;;;;;5031955;28;20173;-77
2021/12/23 02:07:24;;;;;;;13.70;6.63;;;-4.10;99.90;;;;;;5014240;28;20189;-76
2021/12/23 02:09:50;;;;;;;11.98;6.20;;;-3.90;99.90;;;;;;5014101;28;20214;-76
2021/12/23 02:12:17;;;;;;;9.65;4.60;;;-3.50;99.90;;;;;;5014075;28;20198;-76
2021/12/23 02:14:43;;;;;;;8.85;4.07;;;-3.40;99.90;;;;;;5010802;28;20281;-76
2021/12/23 02:17:09;;;;;;;8.02;5.40;;;-3.40;99.90;;;;;;5023819;28;20253;-77
2021/12/23 02:19:35;;;;;;;9.18;4.25;;;-3.50;99.90;;;;;;5031620;28;20162;-76
2021/12/23 02:22:01;;;;;;;10.02;5.03;;;-3.60;99.90;;;;;;5029990;28;20192;-76
2021/12/23 02:24:30;;;;;;;11.23;5.80;;;-3.40;99.90;;;;;;5031312;28;20190;-76
2021/12/23 02:26:56;;;;;;;9.57;5.28;;;-3.30;99.90;;;;;;5013587;28;20257;-76
2021/12/23 02:29:22;;;;;;;10.15;4.78;;;-3.20;99.90;;;;;;5031266;28;20189;-77
2021/12/23 02:31:49;;;;;;;17.45;7.38;;;-3.20;99.90;;;;;;5013052;28;20209;-76
2021/12/23 02:34:16;;;;;;;12.38;5.18;;;-3.20;99.90;;;;;;5031265;28;20565;-76
2021/12/23 02:36:56;;;;;;;8.57;5.50;;;-3.20;99.90;;;;;;5031116;28;20196;-76
2021/12/23 02:39:25;;;;;;;14.30;4.68;;;-3.40;99.90;;;;;;5031189;28;20147;-76
2021/12/23 02:41:51;;;;;;;8.27;4.32;;;-3.50;99.90;;;;;;5031265;28;20174;-75
2021/12/23 02:44:18;;;;;;;11.65;5.18;;;-3.60;99.90;;;;;;5031141;28;20162;-76
2021/12/23 02:46:45;;;;;;;11.70;4.78;;;-3.70;99.90;;;;;;5030973;28;20197;-76
2021/12/23 02:49:12;;;;;;;8.57;4.53;;;-3.90;99.90;;;;;;5031022;28;20166;-76
2021/12/23 02:51:38;;;;;;;10.82;5.75;;;-4.00;99.90;;;;;;5030878;28;20186;-76
2021/12/23 02:54:04;;;;;;;10.63;5.70;;;-4.20;99.90;;;;;;5030939;28;20166;-77
2021/12/23 02:56:31;;;;;;;13.68;6.60;;;-4.20;99.90;;;;;;5030200;28;20198;-77
2021/12/23 02:58:58;;;;;;;12.15;4.95;;;-4.30;99.90;;;;;;5030710;28;20200;-74
2021/12/23 03:01:25;;;;;;;11.27;6.40;;;-4.30;99.90;;;;;;5030819;28;20181;-76
2021/12/23 03:03:51;;;;;;;9.35;5.18;;;-4.40;99.90;;;;;;5030741;28;20158;-76
2021/12/23 03:06:19;;;;;;;7.25;4.82;;;-4.40;99.90;;;;;;5030686;28;20200;-76
2021/12/23 03:08:59;;;;;;;9.13;4.72;;;-4.40;99.90;;;;;;5030574;28;20218;-76
2021/12/23 03:11:28;;;;;;;10.23;5.60;;;-4.40;99.90;;;;;;5030571;28;20243;-76
2021/12/23 03:13:55;;;;;;;13.73;4.72;;;-4.40;99.90;;;;;;5030431;28;20165;-76
2021/12/23 03:16:27;;;;;;;8.55;5.13;;;-4.50;99.90;;;;;;5012634;28;20257;-77
2021/12/23 03:18:53;;;;;;;9.30;4.68;;;-4.50;99.90;;;;;;5030488;28;20190;-76
2021/12/23 03:21:19;;;;;;;12.18;5.30;;;-4.40;99.90;;;;;;5030263;28;20189;-76
2021/12/23 03:23:46;;;;;;;8.27;4.85;;;-4.30;99.90;;;;;;5030381;28;20166;-76
2021/12/23 03:26:12;;;;;;;13.65;4.38;;;-4.20;99.90;;;;;;5030361;28;20244;-76
2021/12/23 03:28:38;;;;;;;9.40;4.80;;;-4.10;99.90;;;;;;5030284;28;20162;-76
2021/12/23 03:31:04;;;;;;;11.30;6.18;;;-4.00;99.90;;;;;;5030224;28;20236;-75
2021/12/23 03:33:31;;;;;;;7.28;4.65;;;-3.80;99.90;;;;;;5030132;28;20189;-76
2021/12/23 03:35:57;;;;;;;9.98;4.80;;;-3.80;99.90;;;;;;5029952;28;20505;-76
2021/12/23 03:38:24;;;;;;;8.38;5.15;;;-3.80;99.90;;;;;;5030211;28;20165;-76
2021/12/23 03:40:50;;;;;;;12.18;5.50;;;-3.80;99.90;;;;;;5012491;28;20185;-76
2021/12/23 03:43:18;;;;;;;12.65;5.35;;;-3.80;99.90;;;;;;5029909;28;20154;-77
2021/12/23 03:45:46;;;;;;;9.30;5.82;;;-3.70;99.90;;;;;;5029753;28;20151;-76
2021/12/23 03:48:14;;;;;;;9.48;4.78;;;-3.80;99.90;;;;;;5029820;28;20201;-76
2021/12/23 03:50:41;;;;;;;13.10;5.57;;;-4.10;99.90;;;;;;5029509;28;20158;-76
2021/12/23 03:53:07;;;;;;;9.25;5.28;;;-4.10;99.90;;;;;;5029782;28;20631;-76
2021/12/23 03:55:33;;;;;;;11.57;5.75;;;-4.20;99.90;;;;;;5029691;28;20155;-76
2021/12/23 03:57:59;;;;;;;10.90;6.10;;;-4.40;99.90;;;;;;5029661;28;20217;-76
2021/12/23 04:00:26;;;;;;;11.10;5.82;;;-4.50;99.90;;;;;;5029446;28;20228;-76
2021/12/23 04:02:53;;;;;;;8.45;4.65;;;-4.40;99.90;;;;;;5029743;28;20172;-76
2021/12/23 04:05:20;;;;;;;7.30;4.45;;;-4.40;99.90;;;;;;5029751;28;20208;-77
2021/12/23 04:07:46;;;;;;;9.05;5.30;;;-4.50;99.90;;;;;;5028697;28;20658;-76
2021/12/23 04:10:16;;;;;;;10.27;4.35;;;-4.40;99.90;;;;;;5029459;28;20171;-76
2021/12/23 04:12:43;;;;;;;12.80;5.25;;;-4.40;99.90;;;;;;5029468;28;20206;-77
2021/12/23 04:15:09;;;;;;;15.20;7.15;;;-4.40;99.90;;;;;;5029476;28;20150;-77
2021/12/23 04:17:36;;;;;;;11.20;6.07;;;-4.40;99.90;;;;;;5011774;28;20201;-76
2021/12/23 04:20:22;;;;;;;18.80;8.07;;;-4.50;99.90;;;;;;5029304;28;20193;-77
2021/12/23 04:22:54;;;;;;;17.35;7.00;;;-4.40;99.90;;;;;;5029335;28;20233;-76
2021/12/23 04:25:25;;;;;;;19.30;7.25;;;-4.50;99.90;;;;;;5029511;28;20244;-75
2021/12/23 04:27:56;;;;;;;15.73;8.77;;;-4.50;99.90;;;;;;5029360;28;20270;-76
2021/12/23 04:30:24;;;;;;;19.98;9.73;;;-4.60;99.90;;;;;;5029371;28;20196;-75
2021/12/23 04:32:50;;;;;;;15.20;8.10;;;-4.60;99.90;;;;;;5029215;28;20201;-75
2021/12/23 04:35:16;;;;;;;23.40;9.27;;;-4.50;99.90;;;;;;5029416;28;20166;-76
2021/12/23 04:37:42;;;;;;;15.60;7.20;;;-4.50;99.90;;;;;;5029267;28;20245;-75
2021/12/23 04:40:11;;;;;;;17.95;8.10;;;-4.60;99.90;;;;;;5029137;28;20158;-75
2021/12/23 04:42:38;;;;;;;17.70;8.25;;;-4.60;99.90;;;;;;5029179;28;20166;-76
2021/12/23 04:45:05;;;;;;;15.20;6.95;;;-4.70;99.90;;;;;;5029166;28;20162;-76
2021/12/23 04:47:32;;;;;;;18.45;8.25;;;-4.60;99.90;;;;;;5029118;28;20213;-75
2021/12/23 04:49:58;;;;;;;17.98;8.20;;;-4.60;99.90;;;;;;5029132;28;20252;-75
2021/12/23 04:52:24;;;;;;;18.50;9.10;;;-4.60;99.90;;;;;;5029080;28;20222;-75
2021/12/23 04:54:50;;;;;;;15.65;7.05;;;-4.60;99.90;;;;;;5011264;28;20193;-75
2021/12/23 04:57:16;;;;;;;15.40;9.18;;;-4.60;99.90;;;;;;5011056;28;20733;-75
2021/12/23 04:59:42;;;;;;;17.90;7.32;;;-4.70;99.90;;;;;;5025310;28;20319;-74
2021/12/23 05:02:08;;;;;;;17.08;8.68;;;-4.70;99.90;;;;;;5048820;28;20170;-75
2021/12/23 05:04:34;;;;;;;18.15;9.32;;;-4.60;99.90;;;;;;5047423;28;20184;-76
2021/12/23 05:07:00;;;;;;;21.55;9.63;;;-4.60;99.90;;;;;;5048732;28;20202;-75
2021/12/23 05:09:26;;;;;;;18.17;10.07;;;-4.60;99.90;;;;;;5048691;28;20166;-75
2021/12/23 05:11:52;;;;;;;15.20;8.30;;;-4.50;99.90;;;;;;5048775;28;20204;-74
2021/12/23 05:14:18;;;;;;;12.57;7.25;;;-4.50;99.90;;;;;;5048738;28;20574;-75
2021/12/23 05:16:44;;;;;;;15.30;8.23;;;-4.60;99.90;;;;;;5047322;28;20197;-75
2021/12/23 05:19:10;;;;;;;16.27;7.07;;;-4.60;99.90;;;;;;5050832;28;20641;-76
2021/12/23 05:21:36;;;;;;;15.57;7.63;;;-4.60;99.90;;;;;;5052462;28;20547;-76
2021/12/23 05:24:02;;;;;;;16.38;7.82;;;-4.60;99.90;;;;;;5052419;28;20157;-75
2021/12/23 05:26:28;;;;;;;15.27;6.15;;;-4.50;99.90;;;;;;5051144;28;20208;-76
2021/12/23 05:28:53;;;;;;;14.27;7.10;;;-4.50;99.90;;;;;;5052311;28;20160;-75
2021/12/23 05:31:19;;;;;;;13.45;7.78;;;-4.50;99.90;;;;;;5050843;28;20231;-75
2021/12/23 05:33:45;;;;;;;9.65;5.38;;;-4.50;99.90;;;;;;5052241;28;20168;-75
2021/12/23 05:36:11;;;;;;;14.82;6.65;;;-4.40;99.90;;;;;;5052138;28;20288;-75
2021/12/23 05:38:37;;;;;;;9.15;5.22;;;-4.20;99.90;;;;;;5051956;28;20166;-75
2021/12/23 05:41:03;;;;;;;19.58;5.88;;;-4.30;99.90;;;;;;5050507;28;20169;-75
2021/12/23 05:43:29;;;;;;;10.63;5.53;;;-4.40;99.90;;;;;;5051935;28;20165;-76
2021/12/23 05:45:55;;;;;;;12.90;5.82;;;-4.40;99.90;;;;;;5051590;28;20168;-74
2021/12/23 05:48:21;;;;;;;11.13;5.45;;;-4.40;99.90;;;;;;5050595;28;20180;-75
2021/12/23 05:50:47;;;;;;;13.25;6.40;;;-4.40;99.90;;;;;;5050207;28;20180;-75
2021/12/23 05:53:13;;;;;;;13.15;6.90;;;-4.60;99.90;;;;;;5051569;28;20241;-75
2021/12/23 05:55:40;;;;;;;10.88;6.32;;;-4.70;99.90;;;;;;5051796;28;20166;-75
2021/12/23 05:58:06;;;;;;;11.73;7.07;;;-4.60;99.90;;;;;;5051483;28;20197;-75
2021/12/23 06:00:33;;;;;;;19.17;8.55;;;-4.60;99.90;;;;;;5049793;28;20255;-75
2021/12/23 06:03:00;;;;;;;15.70;8.27;;;-4.50;99.90;;;;;;5050319;28;20173;-73
2021/12/23 06:05:27;;;;;;;12.02;7.05;;;-4.40;99.90;;;;;;5051482;28;20555;-74
2021/12/23 06:07:53;;;;;;;14.55;8.25;;;-4.40;99.90;;;;;;5051391;28;20256;-74
2021/12/23 06:10:19;;;;;;;15.35;7.53;;;-4.50;99.90;;;;;;5051447;28;20153;-74
2021/12/23 06:12:46;;;;;;;17.63;7.10;;;-4.50;99.90;;;;;;5051127;28;20213;-76
2021/12/23 06:15:14;;;;;;;12.27;7.03;;;-4.50;99.90;;;;;;5051216;28;20253;-75
2021/12/23 06:17:40;;;;;;;9.65;6.25;;;-4.50;99.90;;;;;;5051053;28;20189;-75
2021/12/23 06:20:08;;;;;;;8.68;5.82;;;-4.60;99.90;;;;;;5051373;28;20205;-75
2021/12/23 06:22:36;;;;;;;11.43;4.78;;;-4.70;99.90;;;;;;5051235;28;20197;-74
2021/12/23 06:25:04;;;;;;;9.63;5.57;;;-4.70;99.90;;;;;;5050982;28;20175;-76
2021/12/23 06:27:31;;;;;;;12.98;6.03;;;-4.60;99.90;;;;;;5051111;28;20217;-75
2021/12/23 06:29:57;;;;;;;15.23;6.38;;;-4.70;99.90;;;;;;5050001;28;20172;-75
2021/12/23 06:32:23;;;;;;;11.40;5.75;;;-4.70;99.90;;;;;;5050732;28;20189;-75
2021/12/23 06:34:49;;;;;;;10.32;5.20;;;-4.80;99.90;;;;;;5050974;28;20162;-74
2021/12/23 06:37:16;;;;;;;12.25;5.38;;;-4.80;99.90;;;;;;5049393;28;20200;-74
2021/12/23 06:39:44;;;;;;;12.00;5.47;;;-4.90;99.90;;;;;;5049525;28;20184;-75
2021/12/23 06:42:10;;;;;;;11.75;5.95;;;-4.90;99.90;;;;;;5049265;28;20181;-75
2021/12/23 06:44:36;;;;;;;20.77;7.03;;;-4.90;99.90;;;;;;5050552;28;20161;-74
2021/12/23 06:47:02;;;;;;;13.50;5.75;;;-4.90;99.90;;;;;;5050788;28;20276;-75
2021/12/23 06:49:31;;;;;;;9.60;6.03;;;-4.80;99.90;;;;;;5050545;28;20169;-74
2021/12/23 06:51:59;;;;;;;15.13;7.38;;;-4.70;99.90;;;;;;5049121;28;20201;-76
2021/12/23 06:54:25;;;;;;;14.18;7.68;;;-4.60;99.90;;;;;;5050529;28;20177;-76
2021/12/23 06:56:51;;;;;;;17.55;9.00;;;-4.60;99.90;;;;;;5050032;28;20610;-76
2021/12/23 06:59:17;;;;;;;18.95;9.80;;;-4.60;99.90;;;;;;5043367;28;20230;-74
2021/12/23 07:01:47;;;;;;;23.23;10.70;;;-4.70;99.90;;;;;;5030216;28;20196;-73
2021/12/23 07:04:16;;;;;;;17.90;9.60;;;-4.70;99.90;;;;;;5030189;28;20233;-74
2021/12/23 07:06:52;;;;;;;19.67;8.68;;;-4.60;99.90;;;;;;5029828;28;20258;-73
2021/12/23 07:09:18;;;;;;;18.40;7.30;;;-4.60;99.90;;;;;;5030271;28;20208;-74
2021/12/23 07:11:44;;;;;;;16.02;8.20;;;-4.60;99.90;;;;;;5011945;28;20209;-75
2021/12/23 07:14:10;;;;;;;17.67;7.90;;;-4.50;99.90;;;;;;5012515;28;20201;-74
2021/12/23 07:16:38;;;;;;;14.85;7.35;;;-4.40;99.90;;;;;;5030110;28;20190;-73
2021/12/23 07:19:04;;;;;;;14.35;7.25;;;-4.30;99.90;;;;;;5029950;28;20182;-74
2021/12/23 07:21:31;;;;;;;12.30;6.88;;;-4.20;99.90;;;;;;5030082;28;20189;-74
2021/12/23 07:23:57;;;;;;;16.05;7.97;;;-4.10;99.90;;;;;;5030086;28;20170;-73
2021/12/23 07:26:22;;;;;;;24.10;9.43;;;-3.90;99.90;;;;;;5030267;28;20176;-72
2021/12/23 07:28:49;;;;;;;20.70;9.40;;;-3.80;99.90;;;;;;5012015;28;20204;-72
2021/12/23 07:31:15;;;;;;;23.85;9.45;;;-3.70;99.90;;;;;;5029824;28;20194;-73
2021/12/23 07:33:40;;;;;;;15.48;7.47;;;-3.60;99.90;;;;;;5029714;28;20508;-73
2021/12/23 07:36:06;;;;;;;13.18;7.25;;;-3.50;99.90;;;;;;5029965;28;20165;-73
2021/12/23 07:38:36;;;;;;;17.60;9.35;;;-3.40;99.90;;;;;;5029665;28;20634;-74
2021/12/23 07:41:03;;;;;;;30.30;9.77;;;-3.40;99.90;;;;;;5012000;28;20175;-73
2021/12/23 07:45:59;;;;;;;17.60;8.25;;;-3.10;99.90;;;;;;5029768;28;20162;-73
2021/12/23 07:48:24;;;;;;;15.63;7.20;;;-3.00;99.90;;;;;;5029612;28;20248;-74
2021/12/23 07:50:50;;;;;;;15.10;7.35;;;-2.90;99.90;;;;;;5029557;28;20162;-73
2021/12/23 07:53:16;;;;;;;11.25;6.45;;;-2.70;99.90;;;;;;5029611;28;20271;-72
2021/12/23 07:55:43;;;;;;;15.35;8.20;;;-2.70;99.90;;;;;;5011861;28;20162;-73
2021/12/23 07:58:10;;;;;;;17.35;8.18;;;-2.60;99.90;;;;;;5029539;28;20147;-73
2021/12/23 08:00:36;;;;;;;12.82;7.72;;;-2.60;99.90;;;;;;5029408;28;20228;-74
2021/12/23 08:03:03;;;;;;;19.27;8.70;;;-2.60;99.90;;;;;;5029314;28;20188;-73
2021/12/23 08:05:33;;;;;;;19.25;10.30;;;-2.50;99.90;;;;;;5029697;28;20189;-73
2021/12/23 08:08:00;;;;;;;16.60;7.30;;;-2.40;99.90;;;;;;5011687;28;20198;-73
2021/12/23 08:10:26;;;;;;;16.17;7.47;;;-2.30;99.90;;;;;;5029456;28;20162;-73
2021/12/23 08:12:52;;;;;;;16.30;7.90;;;-2.30;99.90;;;;;;5029202;28;20185;-73
2021/12/23 08:15:18;;;;;;;17.60;8.13;;;-2.30;99.90;;;;;;5029365;28;20162;-73
2021/12/23 08:17:44;;;;;;;15.93;7.85;;;-2.20;99.90;;;;;;5029329;28;20192;-73
2021/12/23 08:20:12;;;;;;;27.50;9.65;;;-2.20;99.90;;;;;;5027929;28;20197;-76
2021/12/23 08:22:38;;;;;;;20.30;9.00;;;-2.00;99.90;;;;;;5028556;28;20190;-75
2021/12/23 08:25:05;;;;;;;16.00;8.73;;;-1.80;99.90;;;;;;5027607;28;20185;-75
2021/12/23 08:27:33;;;;;;;12.20;6.95;;;-1.70;99.90;;;;;;5028398;28;20651;-76
2021/12/23 08:29:59;;;;;;;13.63;8.73;;;-1.70;99.90;;;;;;5027060;28;20247;-76
2021/12/23 08:32:25;;;;;;;15.60;7.28;;;-1.50;99.90;;;;;;4996540;28;20264;-74
2021/12/23 08:34:51;;;;;;;15.20;7.30;;;-1.20;99.90;;;;;;5002798;28;20186;-76
2021/12/23 08:37:17;;;;;;;13.27;7.70;;;-0.70;99.90;;;;;;5011204;28;20197;-76
2021/12/23 08:39:43;;;;;;;20.25;9.05;;;-0.50;99.90;;;;;;5010982;28;20228;-76
2021/12/23 08:42:10;;;;;;;16.33;8.30;;;-0.20;99.90;;;;;;5028414;28;20197;-75
2021/12/23 08:44:37;;;;;;;15.18;6.43;;;0.00;99.90;;;;;;5028324;28;20249;-75
2021/12/23 08:47:04;;;;;;;14.65;7.50;;;0.20;99.90;;;;;;5011399;28;20181;-75
2021/12/23 08:49:30;;;;;;;16.98;7.65;;;0.30;99.90;;;;;;5007306;28;20203;-74
2021/12/23 08:51:56;;;;;;;22.30;8.55;;;0.50;99.90;;;;;;5025731;28;20293;-73
2021/12/23 08:54:22;;;;;;;16.25;7.95;;;0.40;99.90;;;;;;5030782;28;20185;-76
2021/12/23 08:56:48;;;;;;;29.13;8.27;;;0.40;99.90;;;;;;5014698;28;20189;-75
2021/12/23 08:59:14;;;;;;;16.45;7.75;;;0.20;99.90;;;;;;5032178;28;20221;-75
2021/12/23 09:01:42;;;;;;;20.63;8.00;;;0.10;99.90;;;;;;5026024;28;20220;-75
2021/12/23 09:04:09;;;;;;;23.10;8.30;;;0.10;99.90;;;;;;5014819;28;20233;-75
2021/12/23 09:06:34;;;;;;;29.88;7.35;;;0.20;99.90;;;;;;5015884;28;20167;-75
2021/12/23 09:09:00;;;;;;;12.35;7.03;;;0.40;99.90;;;;;;5012678;28;20217;-74
2021/12/23 09:11:26;;;;;;;24.98;8.13;;;0.40;99.90;;;;;;5031986;28;20216;-74
2021/12/23 09:13:53;;;;;;;12.15;7.35;;;0.30;99.90;;;;;;5023473;28;20230;-75
2021/12/23 09:16:19;;;;;;;14.05;6.93;;;0.70;99.90;;;;;;5032264;28;20190;-76
2021/12/23 09:18:45;;;;;;;16.20;7.47;;;1.00;99.90;;;;;;5032338;28;20201;-75
2021/12/23 09:21:12;;;;;;;15.45;6.90;;;1.20;99.90;;;;;;5032265;28;20170;-76
2021/12/23 09:23:39;;;;;;;22.50;8.10;;;1.30;99.90;;;;;;5032189;28;20150;-75
2021/12/23 09:26:09;;;;;;;12.65;7.25;;;1.30;99.90;;;;;;5032295;28;20225;-74
2021/12/23 09:29:03;;;;;;;11.90;7.18;;;1.30;99.90;;;;;;5031292;28;20635;-74
2021/12/23 09:34:12;;;;;;;13.90;7.50;;;2.20;99.90;;;;;;5031443;28;20236;-76
2021/12/23 09:36:40;;;;;;;17.38;7.13;;;2.30;99.90;;;;;;5029562;28;20202;-74
2021/12/23 09:39:09;;;;;;;11.40;7.00;;;2.20;99.90;;;;;;5031564;28;20178;-74
2021/12/23 09:41:39;;;;;;;12.05;6.85;;;2.10;99.90;;;;;;5031927;28;20167;-74
2021/12/23 09:44:08;;;;;;;16.30;7.95;;;1.80;99.90;;;;;;5031986;28;20181;-74
2021/12/23 09:46:34;;;;;;;13.93;7.32;;;2.00;99.90;;;;;;5031824;28;20220;-76
2021/12/23 09:49:02;;;;;;;16.45;7.53;;;2.20;99.90;;;;;;5032354;28;20158;-73
2021/12/23 09:51:29;;;;;;;12.25;7.15;;;2.20;99.90;;;;;;5031624;28;20221;-73
2021/12/23 09:54:02;;;;;;;14.57;7.38;;;2.30;99.90;;;;;;5031698;28;20220;-74
2021/12/23 09:56:30;;;;;;;20.45;6.38;;;2.10;99.90;;;;;;5031658;28;20182;-75
2021/12/23 09:58:58;;;;;;;13.82;7.05;;;2.00;99.90;;;;;;5030624;28;20205;-75
2021/12/23 10:01:29;;;;;;;13.00;6.88;;;2.00;99.90;;;;;;5003485;28;20238;-74
2021/12/23 10:03:55;;;;;;;18.45;6.82;;;1.40;99.90;;;;;;5013201;28;20186;-75
2021/12/23 10:06:24;;;;;;;15.93;7.38;;;1.20;99.90;;;;;;5016649;28;20224;-75
2021/12/23 10:08:50;;;;;;;13.40;6.43;;;1.00;99.90;;;;;;5026574;28;20217;-75
2021/12/23 10:11:27;;;;;;;17.55;6.65;;;1.00;99.90;;;;;;5031434;28;20582;-74
2021/12/23 10:30:56;;;;;;;14.60;7.55;;;1.50;99.90;;;;;;4989506;28;20183;-71
2021/12/23 10:38:37;;;;;;;12.25;7.65;;;0.50;99.90;;;;;;5031013;28;20158;-73
2021/12/23 10:41:12;;;;;;;16.58;6.70;;;0.50;99.90;;;;;;5012192;28;20177;-73
2021/12/23 10:43:48;;;;;;;14.95;7.35;;;0.60;99.90;;;;;;5030683;28;20189;-74
2021/12/23 10:46:22;;;;;;;21.73;7.60;;;0.70;99.90;;;;;;5012727;28;20189;-74
2021/12/23 10:52:15;;;;;;;14.95;7.00;;;1.00;99.90;;;;;;5029116;28;20213;-74
2021/12/23 11:00:23;;;;;;;13.07;7.50;;;0.70;99.90;;;;;;5029889;28;20228;-74
2021/12/23 11:03:02;;;;;;;16.60;6.80;;;0.70;99.90;;;;;;5029525;28;20212;-73
2021/12/23 11:05:33;;;;;;;24.73;7.50;;;0.70;99.90;;;;;;5030076;28;20583;-73
2021/12/23 11:44:03;;;;;;;14.85;6.45;;;0.60;99.90;;;;;;5029642;28;20702;-73
2021/12/23 11:46:45;;;;;;;22.02;7.93;;;0.70;99.90;;;;;;5028961;28;20248;-73
2021/12/23 11:49:14;;;;;;;19.05;7.82;;;0.70;99.90;;;;;;5028388;28;20210;-74
2021/12/23 11:51:53;;;;;;;14.68;7.80;;;0.60;99.90;;;;;;5029064;28;20675;-73
2021/12/23 11:54:33;;;;;;;17.30;7.13;;;0.60;99.90;;;;;;5029455;28;20157;-73
2021/12/23 11:57:09;;;;;;;13.25;7.20;;;0.60;99.90;;;;;;5029349;28;20233;-73
2021/12/23 11:59:36;;;;;;;15.35;6.43;;;0.70;99.90;;;;;;5028453;28;20252;-72
2021/12/23 12:02:15;;;;;;;15.15;7.00;;;0.80;99.90;;;;;;5028237;28;20201;-73
2021/12/23 12:04:41;;;;;;;22.58;7.78;;;0.70;99.90;;;;;;5029276;28;20173;-73
2021/12/23 12:07:19;;;;;;;15.10;6.75;;;0.40;99.90;;;;;;5029332;28;20186;-73
2021/12/23 12:10:07;;;;;;;14.02;6.50;;;0.30;99.90;;;;;;5029211;28;20206;-73
2021/12/23 12:12:34;;;;;;;18.02;6.43;;;0.40;99.90;;;;;;5029273;28;20194;-73
2021/12/23 12:15:02;;;;;;;13.77;6.60;;;0.50;99.90;;;;;;5029063;28;20218;-73
2021/12/23 12:17:32;;;;;;;27.90;8.57;;;0.70;99.90;;;;;;5029150;28;20178;-73
2021/12/23 12:20:52;;;;;;;14.93;7.85;;;0.60;99.90;;;;;;5029015;28;20189;-73
2021/12/23 12:23:36;;;;;;;19.50;7.28;;;0.70;99.90;;;;;;5028527;28;20218;-73
2021/12/23 12:26:12;;;;;;;18.38;8.52;;;0.90;99.90;;;;;;5029328;28;20157;-72
2021/12/23 12:28:38;;;;;;;22.55;9.05;;;0.70;99.90;;;;;;5028216;28;20236;-73
2021/12/23 12:31:28;;;;;;;15.77;8.00;;;0.60;99.90;;;;;;5029025;28;20166;-73
2021/12/23 12:34:08;;;;;;;16.10;6.30;;;0.60;99.90;;;;;;5011097;28;20178;-73
2021/12/23 12:36:49;;;;;;;15.15;7.60;;;0.60;99.90;;;;;;5011142;28;20174;-76
2021/12/23 12:39:24;;;;;;;13.93;6.93;;;0.50;99.90;;;;;;5029067;28;20189;-75
2021/12/23 12:41:52;;;;;;;12.30;6.18;;;0.30;99.90;;;;;;5028892;28;20180;-75
2021/12/23 12:44:34;;;;;;;14.68;6.40;;;0.20;99.90;;;;;;5028636;28;20177;-75
2021/12/23 12:47:10;;;;;;;15.57;7.03;;;0.20;99.90;;;;;;5027427;28;20253;-74
2021/12/23 12:49:47;;;;;;;13.10;7.15;;;0.40;99.90;;;;;;5010453;28;20201;-75
2021/12/23 12:52:35;;;;;;;16.73;7.00;;;0.40;99.90;;;;;;5028518;28;20209;-75
2021/12/23 12:55:15;;;;;;;10.95;6.40;;;0.20;99.90;;;;;;5028518;28;20159;-75
2021/12/23 12:58:04;;;;;;;10.85;5.88;;;0.30;99.90;;;;;;5028541;28;20177;-75
2021/12/23 13:00:35;;;;;;;12.13;6.35;;;0.40;99.90;;;;;;5028543;28;20653;-75
2021/12/23 13:03:14;;;;;;;14.93;7.47;;;0.30;99.90;;;;;;5028400;28;20229;-75
2021/12/23 13:05:43;;;;;;;9.52;6.40;;;0.50;99.90;;;;;;5028409;28;20162;-75
2021/12/23 13:08:20;;;;;;;16.00;6.35;;;0.50;99.90;;;;;;5010376;28;20213;-76
2021/12/23 13:10:49;;;;;;;16.77;7.80;;;0.50;99.90;;;;;;5028537;28;20193;-75
2021/12/23 13:13:32;;;;;;;14.05;6.90;;;0.30;99.90;;;;;;5028322;28;20194;-75
2021/12/23 13:16:20;;;;;;;17.20;7.80;;;0.30;99.90;;;;;;5028378;28;20162;-74
2021/12/23 13:18:46;;;;;;;15.38;6.85;;;0.30;99.90;;;;;;5028051;28;20671;-75
2021/12/23 13:21:20;;;;;;;12.10;6.82;;;0.30;99.90;;;;;;5028547;28;20185;-74
2021/12/23 13:23:47;;;;;;;18.08;7.25;;;0.30;99.90;;;;;;5028319;28;20566;-74
2021/12/23 13:26:18;;;;;;;11.52;6.35;;;0.20;99.90;;;;;;5028500;28;20161;-75
2021/12/23 13:28:51;;;;;;;22.95;6.90;;;0.20;99.90;;;;;;5028159;28;20676;-75
2021/12/23 13:31:23;;;;;;;14.20;6.25;;;0.10;99.90;;;;;;5028165;28;20212;-75
2021/12/23 13:33:53;;;;;;;18.00;7.45;;;0.10;99.90;;;;;;5028273;28;20170;-75
2021/12/23 13:36:25;;;;;;;12.85;7.05;;;0.10;99.90;;;;;;5028248;28;20170;-75
2021/12/23 13:38:53;;;;;;;18.80;7.55;;;-0.10;99.90;;;;;;5028235;28;20240;-75
2021/12/23 13:41:23;;;;;;;13.55;7.07;;;0.00;99.90;;;;;;5031724;28;20244;-75
2021/12/23 13:43:49;;;;;;;12.82;6.95;;;-0.10;99.90;;;;;;5031864;28;20159;-74
2021/12/23 13:46:16;;;;;;;23.80;7.50;;;0.00;99.90;;;;;;5031525;28;20293;-74
2021/12/23 13:49:04;;;;;;;15.13;6.60;;;0.00;99.90;;;;;;5014096;28;20221;-76
2021/12/23 13:51:32;;;;;;;10.85;6.22;;;0.00;99.90;;;;;;5031727;28;20196;-75
2021/12/23 13:54:07;;;;;;;17.13;7.63;;;-0.10;99.90;;;;;;5031877;28;20208;-75
2021/12/23 13:56:36;;;;;;;13.25;6.85;;;-0.10;99.90;;;;;;5013977;28;20162;-75
2021/12/23 13:59:20;;;;;;;15.43;8.32;;;-0.20;99.90;;;;;;5031194;28;20244;-75
2021/12/23 14:01:53;;;;;;;11.90;7.10;;;-0.20;99.90;;;;;;5031573;28;20209;-75
2021/12/23 14:04:34;;;;;;;16.08;7.03;;;-0.10;99.90;;;;;;5031231;28;20173;-75
2021/12/23 14:07:00;;;;;;;14.95;6.90;;;-0.10;99.90;;;;;;5031297;28;20158;-75
2021/12/23 14:10:04;;;;;;;18.10;6.65;;;-0.10;99.90;;;;;;5031164;28;20200;-75